sensor_id;sensor_type;location;lat;lon;timestamp;P1;durP1;ratioP1;P2;durP2;ratioP2
14348;SDS011;7258;50.376;8.742;2023-05-10T00:01:21;5.45;;;4.40;;
14348;SDS011;7258;50.376;8.742;2023-05-10T00:03:25;2.08;;;1.80;;
14348;SDS011;7258;50.376;8.742;2023-05-10T00:05:28;2.30;;;2.10;;
14348;SDS011;7258;50.376;8.742;2023-05-10T00:07:31;2.03;;;1.90;;
14348;SDS011;7258;50.376;8.742;2023-05-10T00:09:34;2.03;;;1.75;;
14348;SDS011;7258;50.376;8.742;2023-05-10T00:11:37;3.13;;;1.80;;
14348;SDS011;7258;50.376;8.742;2023-05-10T00:14:07;2.20;;;1.60;;
14348;SDS011;7258;50.376;8.742;2023-05-10T00:16:17;4.78;;;1.38;;
14348;SDS011;7258;50.376;8.742;2023-05-10T00:18:20;3.97;;;1.45;;
14348;SDS011;7258;50.376;8.742;2023-05-10T00:20:25;1.35;;;1.33;;
14348;SDS011;7258;50.376;8.742;2023-05-10T00:22:28;1.67;;;1.10;;
14348;SDS011;7258;50.376;8.742;2023-05-10T00:24:31;2.78;;;1.20;;
14348;SDS011;7258;50.376;8.742;2023-05-10T00:26:40;1.20;;;1.05;;
14348;SDS011;7258;50.376;8.742;2023-05-10T00:28:43;1.42;;;1.02;;
14348;SDS011;7258;50.376;8.742;2023-05-10T00:30:46;2.10;;;1.58;;
14348;SDS011;7258;50.376;8.742;2023-05-10T00:32:53;1.98;;;1.27;;
14348;SDS011;7258;50.376;8.742;2023-05-10T00:34:56;2.30;;;1.00;;
14348;SDS011;7258;50.376;8.742;2023-05-10T00:37:00;2.38;;;1.05;;
14348;SDS011;7258;50.376;8.742;2023-05-10T00:39:03;0.85;;;0.85;;
14348;SDS011;7258;50.376;8.742;2023-05-10T00:41:07;1.90;;;1.00;;
14348;SDS011;7258;50.376;8.742;2023-05-10T00:43:10;1.45;;;0.80;;
14348;SDS011;7258;50.376;8.742;2023-05-10T00:45:16;1.60;;;1.10;;
14348;SDS011;7258;50.376;8.742;2023-05-10T00:47:20;2.55;;;0.90;;
14348;SDS011;7258;50.376;8.742;2023-05-10T00:49:23;1.98;;;1.00;;
14348;SDS011;7258;50.376;8.742;2023-05-10T00:51:26;1.13;;;1.00;;
14348;SDS011;7258;50.376;8.742;2023-05-10T00:53:32;1.35;;;0.60;;
14348;SDS011;7258;50.376;8.742;2023-05-10T00:55:36;0.80;;;0.80;;
14348;SDS011;7258;50.376;8.742;2023-05-10T00:57:39;0.90;;;0.90;;
14348;SDS011;7258;50.376;8.742;2023-05-10T00:59:43;3.38;;;1.10;;
14348;SDS011;7258;50.376;8.742;2023-05-10T01:01:46;0.90;;;0.90;;
14348;SDS011;7258;50.376;8.742;2023-05-10T01:03:49;2.55;;;1.08;;
14348;SDS011;7258;50.376;8.742;2023-05-10T01:05:52;5.15;;;1.00;;
14348;SDS011;7258;50.376;8.742;2023-05-10T01:07:56;2.27;;;0.97;;
14348;SDS011;7258;50.376;8.742;2023-05-10T01:10:00;2.15;;;1.02;;
14348;SDS011;7258;50.376;8.742;2023-05-10T01:12:03;3.97;;;0.90;;
14348;SDS011;7258;50.376;8.742;2023-05-10T01:14:08;2.95;;;1.00;;
14348;SDS011;7258;50.376;8.742;2023-05-10T01:16:12;1.88;;;0.90;;
14348;SDS011;7258;50.376;8.742;2023-05-10T01:18:15;2.15;;;0.90;;
14348;SDS011;7258;50.376;8.742;2023-05-10T01:20:22;1.13;;;0.98;;
14348;SDS011;7258;50.376;8.742;2023-05-10T01:22:32;3.30;;;1.00;;
14348;SDS011;7258;50.376;8.742;2023-05-10T01:25:07;2.63;;;1.08;;
14348;SDS011;7258;50.376;8.742;2023-05-10T01:30:08;1.35;;;1.20;;
14348;SDS011;7258;50.376;8.742;2023-05-10T01:32:33;1.48;;;0.70;;
14348;SDS011;7258;50.376;8.742;2023-05-10T01:34:43;1.35;;;1.00;;
14348;SDS011;7258;50.376;8.742;2023-05-10T01:36:55;1.58;;;1.00;;
14348;SDS011;7258;50.376;8.742;2023-05-10T01:39:02;1.10;;;1.00;;
14348;SDS011;7258;50.376;8.742;2023-05-10T01:41:18;5.30;;;0.98;;
14348;SDS011;7258;50.376;8.742;2023-05-10T01:43:28;2.28;;;0.90;;
14348;SDS011;7258;50.376;8.742;2023-05-10T01:45:37;0.85;;;0.80;;
14348;SDS011;7258;50.376;8.742;2023-05-10T01:47:50;3.40;;;1.20;;
14348;SDS011;7258;50.376;8.742;2023-05-10T01:50:01;1.47;;;1.00;;
14348;SDS011;7258;50.376;8.742;2023-05-10T01:52:08;1.80;;;1.15;;
14348;SDS011;7258;50.376;8.742;2023-05-10T01:54:17;1.85;;;1.10;;
14348;SDS011;7258;50.376;8.742;2023-05-10T01:56:23;1.93;;;1.10;;
14348;SDS011;7258;50.376;8.742;2023-05-10T01:58:32;1.70;;;1.00;;
14348;SDS011;7258;50.376;8.742;2023-05-10T02:00:36;1.55;;;1.15;;
14348;SDS011;7258;50.376;8.742;2023-05-10T02:02:45;1.02;;;0.80;;
14348;SDS011;7258;50.376;8.742;2023-05-10T02:04:53;3.40;;;1.00;;
14348;SDS011;7258;50.376;8.742;2023-05-10T02:07:01;1.17;;;1.05;;
14348;SDS011;7258;50.376;8.742;2023-05-10T02:09:05;0.88;;;0.88;;
14348;SDS011;7258;50.376;8.742;2023-05-10T02:11:10;1.27;;;1.00;;
14348;SDS011;7258;50.376;8.742;2023-05-10T02:13:15;1.60;;;0.90;;
14348;SDS011;7258;50.376;8.742;2023-05-10T02:15:22;0.88;;;0.88;;
14348;SDS011;7258;50.376;8.742;2023-05-10T02:17:26;1.00;;;0.98;;
14348;SDS011;7258;50.376;8.742;2023-05-10T02:19:31;1.15;;;0.98;;
14348;SDS011;7258;50.376;8.742;2023-05-10T02:21:38;1.23;;;1.02;;
14348;SDS011;7258;50.376;8.742;2023-05-10T02:23:46;2.00;;;1.00;;
14348;SDS011;7258;50.376;8.742;2023-05-10T02:25:53;1.00;;;1.00;;
14348;SDS011;7258;50.376;8.742;2023-05-10T02:28:00;1.23;;;1.13;;
14348;SDS011;7258;50.376;8.742;2023-05-10T02:30:05;1.53;;;1.20;;
14348;SDS011;7258;50.376;8.742;2023-05-10T02:32:09;1.85;;;0.90;;
14348;SDS011;7258;50.376;8.742;2023-05-10T02:34:13;1.10;;;1.10;;
14348;SDS011;7258;50.376;8.742;2023-05-10T02:36:16;2.35;;;1.20;;
14348;SDS011;7258;50.376;8.742;2023-05-10T02:38:22;2.38;;;1.10;;
14348;SDS011;7258;50.376;8.742;2023-05-10T02:40:27;1.15;;;1.15;;
14348;SDS011;7258;50.376;8.742;2023-05-10T02:42:32;1.20;;;1.10;;
14348;SDS011;7258;50.376;8.742;2023-05-10T02:44:39;1.40;;;1.00;;
14348;SDS011;7258;50.376;8.742;2023-05-10T02:46:44;1.30;;;1.20;;
14348;SDS011;7258;50.376;8.742;2023-05-10T02:48:48;2.10;;;1.10;;
14348;SDS011;7258;50.376;8.742;2023-05-10T02:50:51;1.40;;;1.20;;
14348;SDS011;7258;50.376;8.742;2023-05-10T02:52:59;1.50;;;1.40;;
14348;SDS011;7258;50.376;8.742;2023-05-10T02:55:07;1.65;;;1.17;;
14348;SDS011;7258;50.376;8.742;2023-05-10T02:57:15;1.40;;;1.30;;
14348;SDS011;7258;50.376;8.742;2023-05-10T02:59:20;1.67;;;1.25;;
14348;SDS011;7258;50.376;8.742;2023-05-10T03:01:23;2.72;;;1.40;;
14348;SDS011;7258;50.376;8.742;2023-05-10T03:03:26;2.37;;;1.67;;
14348;SDS011;7258;50.376;8.742;2023-05-10T03:05:29;1.58;;;1.48;;
14348;SDS011;7258;50.376;8.742;2023-05-10T03:07:34;1.92;;;1.50;;
14348;SDS011;7258;50.376;8.742;2023-05-10T03:09:37;1.95;;;1.58;;
14348;SDS011;7258;50.376;8.742;2023-05-10T03:11:47;1.80;;;1.70;;
14348;SDS011;7258;50.376;8.742;2023-05-10T03:13:58;2.40;;;1.30;;
14348;SDS011;7258;50.376;8.742;2023-05-10T03:16:14;3.80;;;1.40;;
14348;SDS011;7258;50.376;8.742;2023-05-10T03:18:21;1.60;;;1.50;;
14348;SDS011;7258;50.376;8.742;2023-05-10T03:20:26;1.77;;;1.50;;
14348;SDS011;7258;50.376;8.742;2023-05-10T03:22:34;2.10;;;1.50;;
14348;SDS011;7258;50.376;8.742;2023-05-10T03:24:41;1.70;;;1.50;;
14348;SDS011;7258;50.376;8.742;2023-05-10T03:26:46;2.45;;;1.65;;
14348;SDS011;7258;50.376;8.742;2023-05-10T03:28:51;1.60;;;1.50;;
14348;SDS011;7258;50.376;8.742;2023-05-10T03:30:56;5.60;;;1.77;;
14348;SDS011;7258;50.376;8.742;2023-05-10T03:33:03;1.80;;;1.70;;
14348;SDS011;7258;50.376;8.742;2023-05-10T03:35:08;5.68;;;2.15;;
14348;SDS011;7258;50.376;8.742;2023-05-10T03:37:11;3.67;;;2.05;;
14348;SDS011;7258;50.376;8.742;2023-05-10T03:39:14;2.00;;;1.53;;
14348;SDS011;7258;50.376;8.742;2023-05-10T03:41:18;1.83;;;1.73;;
14348;SDS011;7258;50.376;8.742;2023-05-10T03:43:23;2.55;;;1.50;;
14348;SDS011;7258;50.376;8.742;2023-05-10T03:45:27;2.90;;;1.70;;
14348;SDS011;7258;50.376;8.742;2023-05-10T03:47:32;2.10;;;1.90;;
14348;SDS011;7258;50.376;8.742;2023-05-10T03:49:35;1.80;;;1.70;;
14348;SDS011;7258;50.376;8.742;2023-05-10T03:51:38;2.83;;;1.80;;
14348;SDS011;7258;50.376;8.742;2023-05-10T03:53:40;1.80;;;1.70;;
14348;SDS011;7258;50.376;8.742;2023-05-10T03:55:44;3.42;;;2.00;;
14348;SDS011;7258;50.376;8.742;2023-05-10T03:57:47;1.80;;;1.70;;
14348;SDS011;7258;50.376;8.742;2023-05-10T03:59:52;3.10;;;2.30;;
14348;SDS011;7258;50.376;8.742;2023-05-10T04:01:55;4.33;;;1.80;;
14348;SDS011;7258;50.376;8.742;2023-05-10T04:03:58;2.60;;;2.20;;
14348;SDS011;7258;50.376;8.742;2023-05-10T04:06:01;3.30;;;2.33;;
14348;SDS011;7258;50.376;8.742;2023-05-10T04:08:05;3.53;;;1.90;;
14348;SDS011;7258;50.376;8.742;2023-05-10T04:10:08;2.45;;;2.25;;
14348;SDS011;7258;50.376;8.742;2023-05-10T04:12:11;2.78;;;2.00;;
14348;SDS011;7258;50.376;8.742;2023-05-10T04:14:15;2.77;;;2.07;;
14348;SDS011;7258;50.376;8.742;2023-05-10T04:16:19;3.10;;;1.90;;
14348;SDS011;7258;50.376;8.742;2023-05-10T04:18:22;4.38;;;2.08;;
14348;SDS011;7258;50.376;8.742;2023-05-10T04:20:27;2.30;;;1.83;;
14348;SDS011;7258;50.376;8.742;2023-05-10T04:22:31;5.25;;;2.08;;
14348;SDS011;7258;50.376;8.742;2023-05-10T04:24:34;2.20;;;1.90;;
14348;SDS011;7258;50.376;8.742;2023-05-10T04:26:37;3.45;;;2.10;;
14348;SDS011;7258;50.376;8.742;2023-05-10T04:28:40;2.23;;;2.03;;
14348;SDS011;7258;50.376;8.742;2023-05-10T04:30:43;2.13;;;1.92;;
14348;SDS011;7258;50.376;8.742;2023-05-10T04:32:48;6.80;;;2.38;;
14348;SDS011;7258;50.376;8.742;2023-05-10T04:34:52;2.55;;;2.35;;
14348;SDS011;7258;50.376;8.742;2023-05-10T04:36:55;3.13;;;2.83;;
14348;SDS011;7258;50.376;8.742;2023-05-10T04:38:58;4.60;;;2.65;;
14348;SDS011;7258;50.376;8.742;2023-05-10T04:41:04;4.40;;;3.13;;
14348;SDS011;7258;50.376;8.742;2023-05-10T04:43:08;4.18;;;3.05;;
14348;SDS011;7258;50.376;8.742;2023-05-10T04:45:11;3.30;;;3.00;;
14348;SDS011;7258;50.376;8.742;2023-05-10T04:47:15;4.60;;;3.28;;
14348;SDS011;7258;50.376;8.742;2023-05-10T04:49:20;10.32;;;3.45;;
14348;SDS011;7258;50.376;8.742;2023-05-10T04:51:23;5.00;;;3.08;;
14348;SDS011;7258;50.376;8.742;2023-05-10T04:53:26;6.25;;;2.72;;
14348;SDS011;7258;50.376;8.742;2023-05-10T04:55:29;5.13;;;2.90;;
14348;SDS011;7258;50.376;8.742;2023-05-10T04:57:32;3.67;;;2.53;;
14348;SDS011;7258;50.376;8.742;2023-05-10T04:59:37;3.53;;;2.45;;
14348;SDS011;7258;50.376;8.742;2023-05-10T05:01:40;3.28;;;2.30;;
14348;SDS011;7258;50.376;8.742;2023-05-10T05:03:42;4.47;;;2.28;;
14348;SDS011;7258;50.376;8.742;2023-05-10T05:05:47;4.03;;;2.20;;
14348;SDS011;7258;50.376;8.742;2023-05-10T05:07:50;5.15;;;2.15;;
14348;SDS011;7258;50.376;8.742;2023-05-10T05:09:53;2.45;;;2.20;;
14348;SDS011;7258;50.376;8.742;2023-05-10T05:11:56;4.60;;;2.42;;
14348;SDS011;7258;50.376;8.742;2023-05-10T05:13:59;4.93;;;1.75;;
14348;SDS011;7258;50.376;8.742;2023-05-10T05:16:02;2.50;;;1.73;;
14348;SDS011;7258;50.376;8.742;2023-05-10T05:18:05;2.47;;;1.60;;
14348;SDS011;7258;50.376;8.742;2023-05-10T05:20:09;1.70;;;1.60;;
14348;SDS011;7258;50.376;8.742;2023-05-10T05:22:14;3.25;;;1.25;;
14348;SDS011;7258;50.376;8.742;2023-05-10T05:24:19;1.23;;;1.17;;
14348;SDS011;7258;50.376;8.742;2023-05-10T05:26:22;2.00;;;1.20;;
14348;SDS011;7258;50.376;8.742;2023-05-10T05:28:25;1.30;;;1.20;;
14348;SDS011;7258;50.376;8.742;2023-05-10T05:30:34;2.13;;;0.93;;
14348;SDS011;7258;50.376;8.742;2023-05-10T05:32:37;1.95;;;1.40;;
14348;SDS011;7258;50.376;8.742;2023-05-10T05:34:40;2.33;;;1.30;;
14348;SDS011;7258;50.376;8.742;2023-05-10T05:36:42;1.38;;;1.27;;
14348;SDS011;7258;50.376;8.742;2023-05-10T05:38:47;2.30;;;1.58;;
14348;SDS011;7258;50.376;8.742;2023-05-10T05:40:50;1.33;;;1.20;;
14348;SDS011;7258;50.376;8.742;2023-05-10T05:42:53;3.58;;;1.30;;
14348;SDS011;7258;50.376;8.742;2023-05-10T05:44:56;2.75;;;1.13;;
14348;SDS011;7258;50.376;8.742;2023-05-10T05:46:59;1.30;;;1.20;;
14348;SDS011;7258;50.376;8.742;2023-05-10T05:49:02;1.40;;;1.30;;
14348;SDS011;7258;50.376;8.742;2023-05-10T05:51:05;1.88;;;1.30;;
14348;SDS011;7258;50.376;8.742;2023-05-10T05:53:12;3.03;;;1.33;;
14348;SDS011;7258;50.376;8.742;2023-05-10T05:55:16;1.15;;;0.95;;
14348;SDS011;7258;50.376;8.742;2023-05-10T05:57:19;1.20;;;1.02;;
14348;SDS011;7258;50.376;8.742;2023-05-10T05:59:22;2.42;;;1.30;;
14348;SDS011;7258;50.376;8.742;2023-05-10T06:01:26;1.02;;;1.02;;
14348;SDS011;7258;50.376;8.742;2023-05-10T06:03:28;1.60;;;1.30;;
14348;SDS011;7258;50.376;8.742;2023-05-10T06:05:32;1.77;;;0.95;;
14348;SDS011;7258;50.376;8.742;2023-05-10T06:07:34;1.08;;;1.00;;
14348;SDS011;7258;50.376;8.742;2023-05-10T06:09:37;2.65;;;1.10;;
14348;SDS011;7258;50.376;8.742;2023-05-10T06:11:42;1.35;;;1.20;;
14348;SDS011;7258;50.376;8.742;2023-05-10T06:13:45;2.15;;;1.10;;
14348;SDS011;7258;50.376;8.742;2023-05-10T06:15:48;1.55;;;1.10;;
14348;SDS011;7258;50.376;8.742;2023-05-10T06:17:51;1.00;;;0.93;;
14348;SDS011;7258;50.376;8.742;2023-05-10T06:19:54;4.65;;;1.17;;
14348;SDS011;7258;50.376;8.742;2023-05-10T06:21:57;1.05;;;0.98;;
14348;SDS011;7258;50.376;8.742;2023-05-10T06:24:00;2.40;;;1.10;;
14348;SDS011;7258;50.376;8.742;2023-05-10T06:26:04;1.17;;;1.08;;
14348;SDS011;7258;50.376;8.742;2023-05-10T06:28:08;1.20;;;1.10;;
14348;SDS011;7258;50.376;8.742;2023-05-10T06:30:11;1.65;;;1.00;;
14348;SDS011;7258;50.376;8.742;2023-05-10T06:32:16;1.73;;;1.00;;
14348;SDS011;7258;50.376;8.742;2023-05-10T06:34:19;0.88;;;0.75;;
14348;SDS011;7258;50.376;8.742;2023-05-10T06:36:22;2.17;;;0.95;;
14348;SDS011;7258;50.376;8.742;2023-05-10T06:38:26;1.88;;;0.90;;
14348;SDS011;7258;50.376;8.742;2023-05-10T06:40:28;0.90;;;0.90;;
14348;SDS011;7258;50.376;8.742;2023-05-10T06:42:31;0.85;;;0.82;;
14348;SDS011;7258;50.376;8.742;2023-05-10T06:44:36;0.85;;;0.85;;
14348;SDS011;7258;50.376;8.742;2023-05-10T06:46:38;1.17;;;0.80;;
14348;SDS011;7258;50.376;8.742;2023-05-10T06:48:43;1.20;;;0.80;;
14348;SDS011;7258;50.376;8.742;2023-05-10T06:50:46;0.80;;;0.80;;
14348;SDS011;7258;50.376;8.742;2023-05-10T06:52:49;0.85;;;0.82;;
14348;SDS011;7258;50.376;8.742;2023-05-10T06:54:53;1.10;;;0.50;;
14348;SDS011;7258;50.376;8.742;2023-05-10T06:56:56;1.15;;;0.90;;
14348;SDS011;7258;50.376;8.742;2023-05-10T06:58:59;1.20;;;0.85;;
14348;SDS011;7258;50.376;8.742;2023-05-10T07:01:03;0.82;;;0.70;;
14348;SDS011;7258;50.376;8.742;2023-05-10T07:03:07;0.65;;;0.65;;
14348;SDS011;7258;50.376;8.742;2023-05-10T07:05:12;0.70;;;0.60;;
14348;SDS011;7258;50.376;8.742;2023-05-10T07:07:16;1.45;;;0.70;;
14348;SDS011;7258;50.376;8.742;2023-05-10T07:09:19;1.23;;;0.73;;
14348;SDS011;7258;50.376;8.742;2023-05-10T07:11:22;0.73;;;0.73;;
14348;SDS011;7258;50.376;8.742;2023-05-10T07:13:24;3.03;;;0.80;;
14348;SDS011;7258;50.376;8.742;2023-05-10T07:15:27;0.80;;;0.80;;
14348;SDS011;7258;50.376;8.742;2023-05-10T07:17:32;2.92;;;0.80;;
14348;SDS011;7258;50.376;8.742;2023-05-10T07:19:35;0.57;;;0.57;;
14348;SDS011;7258;50.376;8.742;2023-05-10T07:21:38;1.05;;;0.70;;
14348;SDS011;7258;50.376;8.742;2023-05-10T07:23:41;1.17;;;0.68;;
14348;SDS011;7258;50.376;8.742;2023-05-10T07:25:46;0.77;;;0.60;;
14348;SDS011;7258;50.376;8.742;2023-05-10T07:27:49;1.52;;;0.60;;
14348;SDS011;7258;50.376;8.742;2023-05-10T07:29:52;0.60;;;0.60;;
14348;SDS011;7258;50.376;8.742;2023-05-10T07:31:55;1.98;;;0.60;;
14348;SDS011;7258;50.376;8.742;2023-05-10T07:34:00;1.27;;;0.70;;
14348;SDS011;7258;50.376;8.742;2023-05-10T07:36:03;2.38;;;0.90;;
14348;SDS011;7258;50.376;8.742;2023-05-10T07:38:06;0.80;;;0.80;;
14348;SDS011;7258;50.376;8.742;2023-05-10T07:40:09;1.45;;;1.00;;
14348;SDS011;7258;50.376;8.742;2023-05-10T07:42:12;1.33;;;1.23;;
14348;SDS011;7258;50.376;8.742;2023-05-10T07:44:15;0.93;;;0.93;;
14348;SDS011;7258;50.376;8.742;2023-05-10T07:46:20;2.38;;;1.17;;
14348;SDS011;7258;50.376;8.742;2023-05-10T07:48:23;1.38;;;1.10;;
14348;SDS011;7258;50.376;8.742;2023-05-10T07:50:27;2.60;;;1.40;;
14348;SDS011;7258;50.376;8.742;2023-05-10T07:52:31;1.30;;;1.20;;
14348;SDS011;7258;50.376;8.742;2023-05-10T07:54:34;1.98;;;1.30;;
14348;SDS011;7258;50.376;8.742;2023-05-10T07:56:38;2.10;;;1.38;;
14348;SDS011;7258;50.376;8.742;2023-05-10T07:58:46;1.38;;;1.38;;
14348;SDS011;7258;50.376;8.742;2023-05-10T08:00:49;1.90;;;1.60;;
14348;SDS011;7258;50.376;8.742;2023-05-10T08:02:52;2.15;;;1.40;;
14348;SDS011;7258;50.376;8.742;2023-05-10T08:04:55;3.33;;;1.77;;
14348;SDS011;7258;50.376;8.742;2023-05-10T08:06:59;2.80;;;1.90;;
14348;SDS011;7258;50.376;8.742;2023-05-10T08:09:02;1.88;;;1.77;;
14348;SDS011;7258;50.376;8.742;2023-05-10T08:11:05;1.98;;;1.73;;
14348;SDS011;7258;50.376;8.742;2023-05-10T08:13:08;3.33;;;2.00;;
14348;SDS011;7258;50.376;8.742;2023-05-10T08:15:12;2.50;;;2.08;;
14348;SDS011;7258;50.376;8.742;2023-05-10T08:17:15;2.45;;;1.73;;
14348;SDS011;7258;50.376;8.742;2023-05-10T08:19:20;3.10;;;2.00;;
14348;SDS011;7258;50.376;8.742;2023-05-10T08:21:23;2.00;;;1.90;;
14348;SDS011;7258;50.376;8.742;2023-05-10T08:23:28;2.20;;;1.98;;
14348;SDS011;7258;50.376;8.742;2023-05-10T08:25:31;2.00;;;1.88;;
14348;SDS011;7258;50.376;8.742;2023-05-10T08:27:34;2.95;;;1.98;;
14348;SDS011;7258;50.376;8.742;2023-05-10T08:29:37;1.83;;;1.73;;
14348;SDS011;7258;50.376;8.742;2023-05-10T08:31:50;2.00;;;1.90;;
14348;SDS011;7258;50.376;8.742;2023-05-10T08:33:53;4.30;;;2.20;;
14348;SDS011;7258;50.376;8.742;2023-05-10T08:35:56;2.25;;;2.05;;
14348;SDS011;7258;50.376;8.742;2023-05-10T08:37:58;2.10;;;2.00;;
14348;SDS011;7258;50.376;8.742;2023-05-10T08:40:03;2.63;;;1.92;;
14348;SDS011;7258;50.376;8.742;2023-05-10T08:42:06;2.20;;;2.10;;
14348;SDS011;7258;50.376;8.742;2023-05-10T08:44:11;2.22;;;2.10;;
14348;SDS011;7258;50.376;8.742;2023-05-10T08:46:14;3.50;;;2.30;;
14348;SDS011;7258;50.376;8.742;2023-05-10T08:48:19;2.10;;;2.00;;
14348;SDS011;7258;50.376;8.742;2023-05-10T08:50:24;4.53;;;2.40;;
14348;SDS011;7258;50.376;8.742;2023-05-10T08:52:28;4.28;;;2.40;;
14348;SDS011;7258;50.376;8.742;2023-05-10T08:54:32;2.80;;;2.60;;
14348;SDS011;7258;50.376;8.742;2023-05-10T08:56:38;3.15;;;2.42;;
14348;SDS011;7258;50.376;8.742;2023-05-10T08:58:41;3.58;;;2.10;;
14348;SDS011;7258;50.376;8.742;2023-05-10T09:00:44;2.63;;;2.42;;
14348;SDS011;7258;50.376;8.742;2023-05-10T09:02:47;2.92;;;2.70;;
14348;SDS011;7258;50.376;8.742;2023-05-10T09:04:51;3.35;;;3.05;;
14348;SDS011;7258;50.376;8.742;2023-05-10T09:06:54;6.28;;;4.20;;
14348;SDS011;7258;50.376;8.742;2023-05-10T09:08:57;3.90;;;3.50;;
14348;SDS011;7258;50.376;8.742;2023-05-10T09:11:01;7.90;;;4.03;;
14348;SDS011;7258;50.376;8.742;2023-05-10T09:13:05;4.95;;;4.30;;
14348;SDS011;7258;50.376;8.742;2023-05-10T09:15:11;2.13;;;1.92;;
14348;SDS011;7258;50.376;8.742;2023-05-10T09:17:17;1.88;;;1.77;;
14348;SDS011;7258;50.376;8.742;2023-05-10T09:19:21;3.55;;;1.85;;
14348;SDS011;7258;50.376;8.742;2023-05-10T09:21:24;2.55;;;1.75;;
14348;SDS011;7258;50.376;8.742;2023-05-10T09:23:28;2.88;;;2.05;;
14348;SDS011;7258;50.376;8.742;2023-05-10T09:25:33;2.50;;;2.30;;
14348;SDS011;7258;50.376;8.742;2023-05-10T09:27:37;3.92;;;2.47;;
14348;SDS011;7258;50.376;8.742;2023-05-10T09:29:42;2.50;;;2.03;;
14348;SDS011;7258;50.376;8.742;2023-05-10T09:31:46;2.83;;;2.20;;
14348;SDS011;7258;50.376;8.742;2023-05-10T09:33:52;3.17;;;2.42;;
14348;SDS011;7258;50.376;8.742;2023-05-10T09:36:06;4.20;;;2.35;;
14348;SDS011;7258;50.376;8.742;2023-05-10T09:38:13;3.50;;;2.47;;
14348;SDS011;7258;50.376;8.742;2023-05-10T09:40:16;3.70;;;2.40;;
14348;SDS011;7258;50.376;8.742;2023-05-10T09:42:21;4.00;;;2.70;;
14348;SDS011;7258;50.376;8.742;2023-05-10T09:44:25;2.22;;;2.03;;
14348;SDS011;7258;50.376;8.742;2023-05-10T09:46:30;6.68;;;2.60;;
14348;SDS011;7258;50.376;8.742;2023-05-10T09:48:39;2.28;;;2.10;;
14348;SDS011;7258;50.376;8.742;2023-05-10T09:50:44;3.00;;;2.08;;
14348;SDS011;7258;50.376;8.742;2023-05-10T09:52:48;2.97;;;2.17;;
14348;SDS011;7258;50.376;8.742;2023-05-10T09:54:53;2.63;;;2.00;;
14348;SDS011;7258;50.376;8.742;2023-05-10T09:56:57;2.05;;;1.70;;
14348;SDS011;7258;50.376;8.742;2023-05-10T09:59:03;3.75;;;2.03;;
14348;SDS011;7258;50.376;8.742;2023-05-10T10:01:10;4.05;;;2.17;;
14348;SDS011;7258;50.376;8.742;2023-05-10T10:03:16;5.45;;;2.00;;
14348;SDS011;7258;50.376;8.742;2023-05-10T10:05:20;2.17;;;1.75;;
14348;SDS011;7258;50.376;8.742;2023-05-10T10:07:23;1.77;;;1.67;;
14348;SDS011;7258;50.376;8.742;2023-05-10T10:09:27;2.78;;;1.80;;
14348;SDS011;7258;50.376;8.742;2023-05-10T10:11:30;2.30;;;1.70;;
14348;SDS011;7258;50.376;8.742;2023-05-10T10:13:33;4.18;;;1.80;;
14348;SDS011;7258;50.376;8.742;2023-05-10T10:15:37;2.80;;;1.80;;
14348;SDS011;7258;50.376;8.742;2023-05-10T10:17:40;3.40;;;1.83;;
14348;SDS011;7258;50.376;8.742;2023-05-10T10:19:46;2.20;;;1.75;;
14348;SDS011;7258;50.376;8.742;2023-05-10T10:21:51;1.63;;;1.52;;
14348;SDS011;7258;50.376;8.742;2023-05-10T10:23:54;3.05;;;1.75;;
14348;SDS011;7258;50.376;8.742;2023-05-10T10:25:57;3.28;;;1.60;;
14348;SDS011;7258;50.376;8.742;2023-05-10T10:28:05;3.75;;;1.45;;
14348;SDS011;7258;50.376;8.742;2023-05-10T10:30:19;1.75;;;1.35;;
14348;SDS011;7258;50.376;8.742;2023-05-10T10:32:30;1.63;;;1.48;;
14348;SDS011;7258;50.376;8.742;2023-05-10T10:34:40;4.57;;;1.48;;
14348;SDS011;7258;50.376;8.742;2023-05-10T10:36:45;1.65;;;1.33;;
14348;SDS011;7258;50.376;8.742;2023-05-10T10:38:55;5.05;;;1.33;;
14348;SDS011;7258;50.376;8.742;2023-05-10T10:41:02;1.75;;;1.60;;
14348;SDS011;7258;50.376;8.742;2023-05-10T10:43:21;1.77;;;1.65;;
14348;SDS011;7258;50.376;8.742;2023-05-10T10:45:25;3.10;;;1.98;;
14348;SDS011;7258;50.376;8.742;2023-05-10T10:47:28;2.40;;;1.63;;
14348;SDS011;7258;50.376;8.742;2023-05-10T10:49:37;4.35;;;1.40;;
14348;SDS011;7258;50.376;8.742;2023-05-10T10:54:18;1.67;;;1.30;;
14348;SDS011;7258;50.376;8.742;2023-05-10T10:56:30;1.85;;;1.40;;
14348;SDS011;7258;50.376;8.742;2023-05-10T10:58:33;1.58;;;1.38;;
14348;SDS011;7258;50.376;8.742;2023-05-10T11:00:37;3.80;;;1.55;;
14348;SDS011;7258;50.376;8.742;2023-05-10T11:02:44;1.83;;;1.20;;
14348;SDS011;7258;50.376;8.742;2023-05-10T11:04:49;2.42;;;1.20;;
14348;SDS011;7258;50.376;8.742;2023-05-10T11:06:52;2.10;;;1.33;;
14348;SDS011;7258;50.376;8.742;2023-05-10T11:09:20;2.38;;;1.30;;
14348;SDS011;7258;50.376;8.742;2023-05-10T11:11:27;2.42;;;1.40;;
14348;SDS011;7258;50.376;8.742;2023-05-10T11:13:31;1.48;;;1.35;;
14348;SDS011;7258;50.376;8.742;2023-05-10T11:15:36;1.38;;;1.17;;
14348;SDS011;7258;50.376;8.742;2023-05-10T11:17:40;1.52;;;1.23;;
14348;SDS011;7258;50.376;8.742;2023-05-10T11:22:13;2.03;;;1.20;;
14348;SDS011;7258;50.376;8.742;2023-05-10T11:24:18;3.60;;;1.20;;
14348;SDS011;7258;50.376;8.742;2023-05-10T11:26:23;1.55;;;1.45;;
14348;SDS011;7258;50.376;8.742;2023-05-10T11:28:29;3.80;;;1.45;;
14348;SDS011;7258;50.376;8.742;2023-05-10T11:30:32;3.65;;;1.40;;
14348;SDS011;7258;50.376;8.742;2023-05-10T11:32:36;1.88;;;1.23;;
14348;SDS011;7258;50.376;8.742;2023-05-10T11:34:40;1.83;;;1.20;;
14348;SDS011;7258;50.376;8.742;2023-05-10T11:36:43;2.97;;;1.55;;
14348;SDS011;7258;50.376;8.742;2023-05-10T11:38:46;3.63;;;1.30;;
14348;SDS011;7258;50.376;8.742;2023-05-10T11:40:52;1.25;;;1.10;;
14348;SDS011;7258;50.376;8.742;2023-05-10T11:42:55;2.17;;;0.95;;
14348;SDS011;7258;50.376;8.742;2023-05-10T11:45:00;2.47;;;1.02;;
14348;SDS011;7258;50.376;8.742;2023-05-10T11:47:03;0.85;;;0.80;;
14348;SDS011;7258;50.376;8.742;2023-05-10T11:49:07;0.70;;;0.70;;
14348;SDS011;7258;50.376;8.742;2023-05-10T11:51:10;1.08;;;0.88;;
14348;SDS011;7258;50.376;8.742;2023-05-10T11:53:13;1.45;;;0.80;;
14348;SDS011;7258;50.376;8.742;2023-05-10T11:55:16;3.03;;;0.82;;
14348;SDS011;7258;50.376;8.742;2023-05-10T11:57:25;1.88;;;0.90;;
14348;SDS011;7258;50.376;8.742;2023-05-10T11:59:29;1.40;;;0.90;;
14348;SDS011;7258;50.376;8.742;2023-05-10T12:01:32;3.90;;;0.90;;
14348;SDS011;7258;50.376;8.742;2023-05-10T12:03:35;0.93;;;0.55;;
14348;SDS011;7258;50.376;8.742;2023-05-10T12:05:39;1.15;;;0.70;;
14348;SDS011;7258;50.376;8.742;2023-05-10T12:07:43;1.67;;;1.08;;
14348;SDS011;7258;50.376;8.742;2023-05-10T12:12:04;1.60;;;0.80;;
14348;SDS011;7258;50.376;8.742;2023-05-10T12:14:09;1.85;;;1.05;;
14348;SDS011;7258;50.376;8.742;2023-05-10T12:16:12;0.93;;;0.77;;
14348;SDS011;7258;50.376;8.742;2023-05-10T12:18:22;1.45;;;0.80;;
14348;SDS011;7258;50.376;8.742;2023-05-10T12:20:27;6.95;;;1.10;;
14348;SDS011;7258;50.376;8.742;2023-05-10T12:22:29;1.00;;;0.75;;
14348;SDS011;7258;50.376;8.742;2023-05-10T12:24:35;1.27;;;0.88;;
14348;SDS011;7258;50.376;8.742;2023-05-10T12:26:39;1.83;;;1.58;;
14348;SDS011;7258;50.376;8.742;2023-05-10T12:28:42;3.15;;;2.60;;
14348;SDS011;7258;50.376;8.742;2023-05-10T12:30:47;1.67;;;1.10;;
14348;SDS011;7258;50.376;8.742;2023-05-10T12:32:50;1.85;;;1.05;;
14348;SDS011;7258;50.376;8.742;2023-05-10T12:34:53;2.72;;;2.33;;
14348;SDS011;7258;50.376;8.742;2023-05-10T12:36:56;1.30;;;1.20;;
14348;SDS011;7258;50.376;8.742;2023-05-10T12:39:01;2.13;;;0.95;;
14348;SDS011;7258;50.376;8.742;2023-05-10T12:41:06;1.42;;;1.30;;
14348;SDS011;7258;50.376;8.742;2023-05-10T12:43:10;5.97;;;2.40;;
14348;SDS011;7258;50.376;8.742;2023-05-10T12:45:13;2.70;;;2.50;;
14348;SDS011;7258;50.376;8.742;2023-05-10T12:47:17;3.17;;;2.10;;
14348;SDS011;7258;50.376;8.742;2023-05-10T12:49:20;5.50;;;2.00;;
14348;SDS011;7258;50.376;8.742;2023-05-10T12:51:23;1.83;;;1.50;;
14348;SDS011;7258;50.376;8.742;2023-05-10T12:53:26;2.88;;;1.20;;